DGAA/ACC METAR and TAF weather

Enter ICAO airport designator
Station Type Date Time Source
DGAA METAR 2019/10/18 07:00 UTC NOAA

DGAA 180700Z 26008KT 9999 FEW025 25/23 Q1012 NOSIG


Station Type Date Time Source
DGAA Decoded METAR 2019/10/18 07:00 UTC NOAA

Accra, Ghana (DGAA) 05-36N 000-10W 69M
Oct 18, 2019 - 03:00 AM EDT / 2019.10.18 0700 UTC
Wind: from the W (260 degrees) at 9 MPH (8 KT):0
Visibility: greater than 7 mile(s):0
Sky conditions: mostly clear
Temperature: 77 F (25 C)
Dew Point: 73 F (23 C)
Relative Humidity: 88%
Pressure (altimeter): 29.88 in. Hg (1012 hPa)
ob: DGAA 180700Z 26008KT 9999 FEW025 25/23 Q1012 NOSIG
cycle: 7

Station Type Date Time Source
DGAA TAF 2019/10/18 06:21 UTC NOAA

TAF TAF DGAA 180500Z 1806/1912 27008KT 9999 SCT014 PROB30
TEMPO 1809/1814 6000 TSRA BKN010 SCT028CB
BECMG 1812/1814 20005G16KT
FM190100 24008KT 9999 BKN010

Example: see airport list